CYAS

Kangirsuk Supplementary Aviation Weather Reporting

Kangirsuk, Alberta, Canada
METAR CYAS 232200Z 29013KT 15SM SKC M30/M34 A3014 RMK SNOW COVER HARD PACK LAST STFD OBS NEXT 241300UTC SLP228
Observed Flight Rules
Jan-23 @ 22:00 UTC (5 hours ago) Visual Flight Rules
Wind Visibility Clouds
290° at 13 knots 15 miles
  • Clear skies
Temperatures Readings
Current -30°C / -22°F
Dewpoint -34°C / -29°F
Humidity 68%
Altimeter 30.14" Hg
Pressure 1022.8 hPa
Elevation 117
METAR CYAS 232200Z 29013KT 15SM SKC M30/M34 A3014 RMK SNOW COVER HARD PACK LAST STFD OBS NEXT 241300UTC SLP228
Observed Flight Rules
Jan-23 @ 22:00 UTC
(5 hours ago)
VFR
Wind Visibility
290° at 13 knots 15 miles
Clouds
  • Clear skies
Temperature Dewpoint
-30°C / -22°F -34°C / -29°F
Humidity Altimeter Pressure
68% 30.14" Hg 1022.8 hPa